Time;durP1;ratioP1;P1;durP2;ratioP2;P2;SDS_P1;SDS_P2;PMS_P1;PMS_P2;Temp;Humidity;BMP_temperature;BMP_pressure;BME280_temperature;BME280_humidity;BME280_pressure;Samples;Min_cycle;Max_cycle;Signal;HPM_P1;HPM_P2
2021/09/05 00:02:26;;;;;;;18.13;11.15;;;12.60;99.90;;;;;;6268685;23;20023;-91
2021/09/05 00:05:16;;;;;;;14.98;9.88;;;12.50;99.90;;;;;;6269570;22;20028;-92
2021/09/05 00:08:07;;;;;;;15.73;10.68;;;12.60;99.90;;;;;;6269343;23;20020;-91
2021/09/05 00:10:56;;;;;;;14.48;10.48;;;12.60;99.90;;;;;;6268238;23;20024;-90
2021/09/05 00:13:48;;;;;;;14.02;10.63;;;12.60;99.90;;;;;;6263791;23;20035;-90
2021/09/05 00:16:36;;;;;;;18.02;10.75;;;12.70;99.90;;;;;;6261177;22;20099;-91
2021/09/05 00:19:23;;;;;;;15.15;10.50;;;12.60;99.90;;;;;;6256634;23;20116;-92
2021/09/05 00:22:10;;;;;;;14.65;10.27;;;12.60;99.90;;;;;;6252588;23;20027;-92
2021/09/05 00:24:57;;;;;;;13.13;9.93;;;12.60;99.90;;;;;;6252252;23;20063;-91
2021/09/05 00:27:44;;;;;;;17.55;10.32;;;12.50;99.90;;;;;;6249847;23;20041;-92
2021/09/05 00:30:32;;;;;;;16.13;11.20;;;12.40;99.90;;;;;;6252713;22;20114;-92
2021/09/05 00:33:22;;;;;;;14.52;9.35;;;12.30;99.90;;;;;;6253944;22;20021;-91
2021/09/05 00:36:12;;;;;;;15.15;10.18;;;12.20;99.90;;;;;;6254671;23;20020;-91
2021/09/05 00:38:59;;;;;;;12.85;10.00;;;12.30;99.90;;;;;;6253121;23;20055;-92
2021/09/05 00:41:49;;;;;;;15.38;10.57;;;12.20;99.90;;;;;;6250815;23;20090;-92
2021/09/05 00:44:36;;;;;;;15.38;10.85;;;12.20;99.90;;;;;;6251370;23;20032;-91
2021/09/05 00:47:24;;;;;;;17.85;10.27;;;12.20;99.90;;;;;;6253848;23;20082;-93
2021/09/05 00:50:13;;;;;;;17.00;10.18;;;12.20;99.90;;;;;;6253992;23;20369;-91
2021/09/05 00:53:00;;;;;;;14.80;10.60;;;12.20;99.90;;;;;;6253728;22;20028;-91
2021/09/05 00:55:49;;;;;;;17.40;11.35;;;12.20;99.90;;;;;;6250845;23;20071;-91
2021/09/05 00:58:41;;;;;;;14.70;10.65;;;12.30;99.90;;;;;;6252106;22;20055;-89
2021/09/05 01:01:29;;;;;;;15.55;10.38;;;12.30;99.90;;;;;;6254907;22;20117;-91
2021/09/05 01:04:18;;;;;;;15.82;10.60;;;12.30;99.90;;;;;;6252510;23;20319;-92
2021/09/05 01:07:06;;;;;;;16.65;10.45;;;12.30;99.90;;;;;;6259842;22;20024;-91
2021/09/05 01:09:53;;;;;;;14.13;9.65;;;12.30;99.90;;;;;;6262458;23;20028;-90
2021/09/05 01:12:41;;;;;;;15.23;10.40;;;12.30;99.90;;;;;;6264068;23;20081;-91
2021/09/05 01:15:31;;;;;;;14.45;10.43;;;12.20;99.90;;;;;;6264098;23;20044;-90
2021/09/05 01:18:18;;;;;;;17.15;9.95;;;12.10;99.90;;;;;;6268878;22;20096;-91
2021/09/05 01:21:05;;;;;;;14.15;10.88;;;12.10;99.90;;;;;;6265469;22;20028;-91
2021/09/05 01:23:53;;;;;;;13.73;9.90;;;12.00;99.90;;;;;;6270614;22;20035;-91
2021/09/05 01:26:46;;;;;;;16.30;10.82;;;12.00;99.90;;;;;;6262794;23;20116;-91
2021/09/05 01:29:33;;;;;;;12.60;9.07;;;12.00;99.90;;;;;;6259956;23;20082;-91
2021/09/05 01:32:22;;;;;;;12.43;9.50;;;12.10;99.90;;;;;;6253380;22;20027;-91
2021/09/05 01:35:10;;;;;;;14.60;9.27;;;12.10;99.90;;;;;;6249452;23;20024;-91
2021/09/05 01:37:59;;;;;;;13.93;9.38;;;12.10;99.90;;;;;;6251086;22;20392;-91
2021/09/05 01:40:49;;;;;;;13.40;9.95;;;12.10;99.90;;;;;;6249193;23;20103;-91
2021/09/05 01:43:37;;;;;;;10.35;8.88;;;12.00;99.90;;;;;;6248364;23;20055;-92
2021/09/05 01:46:27;;;;;;;15.02;9.85;;;12.00;99.90;;;;;;6249888;22;20032;-91
2021/09/05 01:49:14;;;;;;;13.27;9.43;;;12.00;99.90;;;;;;6249698;23;20082;-91
2021/09/05 01:52:09;;;;;;;14.77;9.25;;;12.00;99.90;;;;;;6250656;23;20020;-91
2021/09/05 01:54:57;;;;;;;14.10;10.23;;;12.00;99.90;;;;;;6248727;23;20305;-91
2021/09/05 01:57:45;;;;;;;13.73;10.77;;;12.00;99.90;;;;;;6250581;23;20066;-91
2021/09/05 02:00:32;;;;;;;13.90;9.55;;;12.10;99.90;;;;;;6251913;22;20043;-90
2021/09/05 02:03:20;;;;;;;12.05;9.18;;;12.20;99.90;;;;;;6249684;22;20024;-91
2021/09/05 02:06:08;;;;;;;15.77;10.02;;;12.20;99.90;;;;;;6249536;23;20028;-92
2021/09/05 02:08:55;;;;;;;14.05;9.80;;;12.30;99.90;;;;;;6249458;23;20109;-92
2021/09/05 02:11:43;;;;;;;15.38;10.30;;;12.30;99.90;;;;;;6250418;23;20023;-92
2021/09/05 02:14:30;;;;;;;17.10;10.13;;;12.30;99.90;;;;;;6248497;23;20066;-91
2021/09/05 02:17:17;;;;;;;14.45;9.63;;;12.30;99.90;;;;;;6249050;23;20089;-91
2021/09/05 02:20:07;;;;;;;15.10;10.40;;;12.30;99.90;;;;;;6250403;23;20017;-92
2021/09/05 02:22:56;;;;;;;12.32;9.30;;;12.20;99.90;;;;;;6250972;22;20055;-92
2021/09/05 02:25:43;;;;;;;12.60;9.63;;;12.20;99.90;;;;;;6248159;23;20054;-91
2021/09/05 02:28:31;;;;;;;11.20;9.48;;;12.10;99.90;;;;;;6251263;23;20078;-92
2021/09/05 02:31:18;;;;;;;14.02;9.68;;;12.10;99.90;;;;;;6252880;22;20094;-91
2021/09/05 02:34:05;;;;;;;16.00;10.27;;;12.00;99.90;;;;;;6250635;22;20050;-91
2021/09/05 02:36:56;;;;;;;13.40;9.88;;;12.00;99.90;;;;;;6252333;22;20082;-92
2021/09/05 02:39:46;;;;;;;13.77;9.95;;;12.00;99.90;;;;;;6250101;22;20047;-92
2021/09/05 02:42:34;;;;;;;12.82;9.95;;;11.90;99.90;;;;;;6249517;23;20055;-92
2021/09/05 02:45:22;;;;;;;13.73;10.35;;;11.80;99.90;;;;;;6249191;23;20024;-92
2021/09/05 02:48:10;;;;;;;14.82;9.90;;;11.80;99.90;;;;;;6250839;23;20103;-91
2021/09/05 02:50:57;;;;;;;16.75;10.73;;;11.70;99.90;;;;;;6249869;22;20113;-91
2021/09/05 02:53:44;;;;;;;15.75;10.93;;;11.70;99.90;;;;;;6252897;22;20044;-92
2021/09/05 02:56:34;;;;;;;16.35;10.98;;;11.70;99.90;;;;;;6249831;23;20090;-91
2021/09/05 02:59:24;;;;;;;15.07;10.35;;;11.70;99.90;;;;;;6252085;22;20024;-91
2021/09/05 03:02:11;;;;;;;17.08;10.10;;;11.60;99.90;;;;;;6228092;23;20028;-92
2021/09/05 03:04:59;;;;;;;12.38;9.77;;;11.60;99.90;;;;;;6250870;23;20028;-92
2021/09/05 03:07:47;;;;;;;18.52;10.15;;;11.50;99.90;;;;;;6251462;22;20038;-92
2021/09/05 03:10:34;;;;;;;14.77;11.20;;;11.50;99.90;;;;;;6250991;23;20105;-90
2021/09/05 03:13:23;;;;;;;14.57;11.00;;;11.40;99.90;;;;;;6250360;22;20039;-90
2021/09/05 03:16:13;;;;;;;17.65;11.60;;;11.40;99.90;;;;;;6250515;22;20044;-91
2021/09/05 03:19:01;;;;;;;16.73;11.00;;;11.30;99.90;;;;;;6252654;23;20083;-90
2021/09/05 03:21:48;;;;;;;16.13;11.90;;;11.30;99.90;;;;;;6256375;23;20024;-92
2021/09/05 03:24:36;;;;;;;18.83;13.07;;;11.30;99.90;;;;;;6258913;22;20131;-91
2021/09/05 03:27:28;;;;;;;19.77;12.32;;;11.30;99.90;;;;;;6253457;23;20052;-91
2021/09/05 03:30:15;;;;;;;16.90;11.15;;;11.30;99.90;;;;;;6251973;22;20036;-92
2021/09/05 03:33:02;;;;;;;15.02;10.55;;;11.30;99.90;;;;;;6248026;23;20051;-92
2021/09/05 03:35:51;;;;;;;15.68;11.43;;;11.20;99.90;;;;;;6250329;23;20020;-93
2021/09/05 03:38:45;;;;;;;17.50;12.07;;;11.20;99.90;;;;;;6227333;23;20115;-91
2021/09/05 03:41:32;;;;;;;18.55;12.77;;;11.20;99.90;;;;;;6250350;23;20020;-90
2021/09/05 03:44:22;;;;;;;15.00;11.93;;;11.20;99.90;;;;;;6250495;22;20074;-93
2021/09/05 03:47:09;;;;;;;14.60;11.52;;;11.20;99.90;;;;;;6261680;22;20090;-91
2021/09/05 03:49:57;;;;;;;17.52;11.73;;;11.20;99.90;;;;;;6265650;22;20035;-90
2021/09/05 03:52:47;;;;;;;14.85;11.93;;;11.20;99.90;;;;;;6256434;22;20078;-91
2021/09/05 03:55:37;;;;;;;15.45;11.93;;;11.10;99.90;;;;;;6247289;23;20028;-92
2021/09/05 03:58:26;;;;;;;16.90;12.38;;;11.10;99.90;;;;;;6252754;22;20103;-89
2021/09/05 04:01:13;;;;;;;20.98;12.07;;;11.10;99.90;;;;;;6250776;23;20074;-91
2021/09/05 04:04:04;;;;;;;20.63;12.57;;;11.10;99.90;;;;;;6252935;22;20028;-91
2021/09/05 04:07:00;;;;;;;19.17;12.88;;;11.10;99.90;;;;;;6251114;23;20036;-90
2021/09/05 04:12:54;;;;;;;16.95;11.55;;;11.10;99.90;;;;;;6252492;22;20086;-91
2021/09/05 04:15:44;;;;;;;17.30;11.57;;;11.00;99.90;;;;;;6254303;22;20024;-91
2021/09/05 04:18:31;;;;;;;17.70;12.15;;;11.00;99.90;;;;;;6256450;22;20080;-91
2021/09/05 04:21:19;;;;;;;16.52;11.68;;;10.90;99.90;;;;;;6257855;22;20024;-92
2021/09/05 04:24:06;;;;;;;17.65;11.63;;;10.90;99.90;;;;;;6255319;22;20071;-91
2021/09/05 04:26:54;;;;;;;20.27;11.98;;;10.90;99.90;;;;;;6249997;23;20023;-90
2021/09/05 04:29:49;;;;;;;15.85;12.65;;;10.90;99.90;;;;;;6252180;23;20028;-92
2021/09/05 04:32:37;;;;;;;15.82;12.43;;;10.80;99.90;;;;;;6252602;22;20024;-91
2021/09/05 04:35:29;;;;;;;17.92;12.15;;;10.80;99.90;;;;;;6251952;23;20020;-92
2021/09/05 04:38:17;;;;;;;22.73;13.45;;;10.80;99.90;;;;;;6252718;23;20079;-90
2021/09/05 04:41:05;;;;;;;17.08;12.45;;;10.80;99.90;;;;;;6252785;23;20039;-92
2021/09/05 04:43:52;;;;;;;16.25;11.88;;;10.80;99.90;;;;;;6208633;23;20056;-92
2021/09/05 04:46:40;;;;;;;18.73;13.18;;;10.80;99.90;;;;;;6228209;23;20024;-92
2021/09/05 04:49:27;;;;;;;15.45;12.23;;;10.80;99.90;;;;;;6250010;23;20032;-92
2021/09/05 04:52:15;;;;;;;17.27;12.38;;;10.90;99.90;;;;;;6250910;23;20024;-91
2021/09/05 04:55:03;;;;;;;20.25;13.50;;;10.80;99.90;;;;;;6251829;22;20028;-91
2021/09/05 04:57:53;;;;;;;18.38;13.48;;;10.80;99.90;;;;;;6251862;23;20423;-92
2021/09/05 05:00:42;;;;;;;23.23;14.02;;;10.80;99.90;;;;;;6250733;23;20093;-90
2021/09/05 05:03:32;;;;;;;19.80;14.02;;;10.80;99.90;;;;;;6248999;23;20403;-90
2021/09/05 05:06:41;;;;;;;20.60;13.93;;;10.80;99.90;;;;;;6246321;23;20134;-92
2021/09/05 05:09:28;;;;;;;20.48;13.60;;;10.90;99.90;;;;;;6247609;23;20113;-91
2021/09/05 05:12:15;;;;;;;20.63;13.45;;;11.00;99.90;;;;;;6247116;23;20126;-93
2021/09/05 05:15:06;;;;;;;17.35;12.90;;;11.10;99.90;;;;;;6246006;23;20051;-90
2021/09/05 05:17:54;;;;;;;19.20;13.25;;;11.20;99.90;;;;;;6227989;23;20024;-90
2021/09/05 05:20:44;;;;;;;18.88;11.50;;;11.30;99.90;;;;;;6248216;23;20086;-91
2021/09/05 05:23:32;;;;;;;21.13;11.88;;;11.30;99.90;;;;;;6250166;22;20342;-90
2021/09/05 05:26:19;;;;;;;21.25;12.13;;;11.30;99.90;;;;;;6247617;22;20027;-92
2021/09/05 05:29:07;;;;;;;19.20;12.98;;;11.50;99.90;;;;;;6247115;23;20103;-93
2021/09/05 05:31:56;;;;;;;15.73;11.75;;;11.50;99.90;;;;;;6247379;23;20112;-92
2021/09/05 05:34:44;;;;;;;16.58;11.25;;;11.60;99.90;;;;;;6248383;22;20024;-92
2021/09/05 05:37:31;;;;;;;14.20;10.70;;;11.70;99.90;;;;;;6250237;22;20039;-92
2021/09/05 05:40:25;;;;;;;15.88;10.75;;;11.80;99.90;;;;;;6249217;23;20130;-91
2021/09/05 05:43:12;;;;;;;15.45;11.50;;;11.80;99.90;;;;;;6250554;23;20347;-92
2021/09/05 05:46:00;;;;;;;20.38;11.95;;;11.90;99.90;;;;;;6250496;23;20188;-91
2021/09/05 05:48:48;;;;;;;16.90;11.10;;;12.00;99.90;;;;;;6250680;22;20028;-93
2021/09/05 05:51:36;;;;;;;14.00;10.80;;;12.10;99.90;;;;;;6253560;22;20024;-92
2021/09/05 05:54:25;;;;;;;16.23;10.55;;;12.20;99.90;;;;;;6261898;23;20024;-92
2021/09/05 05:57:14;;;;;;;16.27;10.57;;;12.30;99.90;;;;;;6260610;23;20046;-92
2021/09/05 06:00:04;;;;;;;15.50;11.18;;;12.40;99.90;;;;;;6264779;23;20111;-91
2021/09/05 06:02:53;;;;;;;14.90;10.73;;;12.50;99.90;;;;;;6265058;22;20012;-92
2021/09/05 06:06:01;;;;;;;16.33;9.80;;;12.70;99.90;;;;;;5107498;27;20394;-92
2021/09/05 06:09:47;;;;;;;;;;;;;;;;;;;;;
2021/09/05 06:13:03;;;;;;;12.82;10.30;;;13.10;99.90;;;;;;5002415;28;20097;-93
2021/09/05 06:15:56;;;;;;;16.42;10.52;;;13.50;99.90;;;;;;4994285;28;20483;-92
2021/09/05 06:19:22;;;;;;;;;;;;;;;;;;;;;
2021/09/05 06:27:44;;;;;;;13.10;8.80;;;14.70;99.90;;;;;;4990829;28;20053;-93
2021/09/05 06:34:42;;;;;;;9.88;7.57;;;15.30;99.90;;;;;;5091521;28;20052;-91
2021/09/05 06:45:36;;;;;;;10.98;7.18;;;16.70;99.90;;;;;;4852867;29;20057;-92
2021/09/05 06:49:07;;;;;;;;;;;;;;;;;;;;;
2021/09/05 06:53:08;;;;;;;;;;;;;;;;;;;;;
2021/09/05 07:01:33;;;;;;;;;;;;;;;;;;;;;
2021/09/05 07:05:46;;;;;;;;;;;;;;;;;;;;;
2021/09/05 07:09:47;;;;;;;;;;;;;;;;;;;;;
2021/09/05 07:13:50;;;;;;;10.18;6.82;;;18.30;99.90;;;;;;5019164;28;20052;-93
2021/09/05 07:17:07;;;;;;;;;;;;;;;;;;;;;
2021/09/05 07:28:42;;;;;;;11.93;6.72;;;18.30;99.90;;;;;;5028479;28;20067;-92
2021/09/05 07:32:17;;;;;;;9.43;6.85;;;18.30;99.90;;;;;;5063937;28;20113;-93
2021/09/05 07:35:36;;;;;;;;;;;;;;;;;;;;;
2021/09/05 07:39:18;;;;;;;8.43;6.80;;;18.40;99.90;;;;;;5054349;28;20125;-92
2021/09/05 07:42:14;;;;;;;7.55;6.22;;;18.30;99.90;;;;;;5051209;28;20280;-92
2021/09/05 07:45:07;;;;;;;8.85;6.45;;;18.30;99.90;;;;;;5043471;28;20045;-93
2021/09/05 07:47:56;;;;;;;7.75;6.60;;;18.50;99.90;;;;;;5057485;28;20181;-92
2021/09/05 07:51:23;;;;;;;10.43;7.63;;;18.90;99.90;;;;;;5032406;28;20060;-90
2021/09/05 07:54:13;;;;;;;10.00;6.68;;;19.50;99.90;;;;;;5049442;28;20057;-91
2021/09/05 07:57:25;;;;;;;13.43;7.30;;;19.80;99.90;;;;;;5060930;28;20135;-93
2021/09/05 08:00:12;;;;;;;8.38;6.00;;;20.20;99.90;;;;;;5041250;28;20136;-91
2021/09/05 08:03:22;;;;;;;8.82;6.38;;;20.60;99.90;;;;;;5046384;28;20052;-91
2021/09/05 08:06:16;;;;;;;6.97;5.80;;;21.20;99.90;;;;;;5089066;27;20043;-92
2021/09/05 08:09:42;;;;;;;10.48;6.90;;;22.00;99.90;;;;;;5099133;28;20144;-93
2021/09/05 08:12:30;;;;;;;6.82;5.70;;;23.00;98.10;;;;;;5101120;28;20063;-89
2021/09/05 08:15:17;;;;;;;6.40;5.30;;;23.70;93.70;;;;;;5110884;27;20069;-89
2021/09/05 08:18:24;;;;;;;7.10;4.95;;;24.60;90.20;;;;;;5090745;28;20062;-89
2021/09/05 08:21:11;;;;;;;5.93;5.20;;;25.30;85.30;;;;;;5104570;28;20169;-91
2021/09/05 08:23:59;;;;;;;5.70;5.10;;;26.20;75.80;;;;;;5066956;28;20155;-88
2021/09/05 08:26:48;;;;;;;9.18;5.50;;;27.00;75.50;;;;;;5106472;28;20128;-91
2021/09/05 08:29:36;;;;;;;7.35;5.05;;;27.50;68.90;;;;;;5113966;28;20067;-88
2021/09/05 08:32:23;;;;;;;8.82;4.45;;;27.70;69.10;;;;;;5096359;28;20089;-85
2021/09/05 08:35:11;;;;;;;5.85;4.57;;;28.00;69.90;;;;;;5107383;28;20051;-87
2021/09/05 08:37:58;;;;;;;6.15;5.10;;;28.10;68.80;;;;;;5114372;27;20122;-89
2021/09/05 08:40:48;;;;;;;5.65;4.60;;;27.90;66.60;;;;;;5091033;28;20085;-91
2021/09/05 08:43:37;;;;;;;7.07;4.55;;;27.90;64.50;;;;;;5110554;27;20744;-90
2021/09/05 08:46:25;;;;;;;7.22;5.13;;;27.50;67.40;;;;;;5109170;27;20047;-92
2021/09/05 08:49:19;;;;;;;5.38;4.85;;;27.20;68.30;;;;;;5105851;27;20040;-92
2021/09/05 08:52:06;;;;;;;6.43;4.93;;;26.90;70.70;;;;;;5095703;28;20131;-91
2021/09/05 08:54:54;;;;;;;5.38;4.88;;;27.50;68.80;;;;;;5093306;28;20129;-91
2021/09/05 08:57:41;;;;;;;5.43;4.75;;;28.10;62.40;;;;;;5099306;28;20044;-92
2021/09/05 09:00:32;;;;;;;8.75;4.28;;;28.50;62.30;;;;;;5096731;27;20519;-90
2021/09/05 09:03:22;;;;;;;5.93;4.60;;;29.40;59.10;;;;;;5111528;27;20144;-92
2021/09/05 09:06:16;;;;;;;6.35;5.32;;;30.00;56.80;;;;;;5117036;27;20380;-91
2021/09/05 09:09:04;;;;;;;5.07;4.57;;;29.90;54.50;;;;;;5108894;28;20228;-94
2021/09/05 09:11:54;;;;;;;6.10;4.95;;;30.40;55.30;;;;;;5100895;27;20108;-91
2021/09/05 09:14:45;;;;;;;6.72;4.95;;;30.30;54.80;;;;;;5106696;27;20183;-92
2021/09/05 09:17:38;;;;;;;5.55;4.55;;;30.50;53.00;;;;;;5105977;27;20070;-92
2021/09/05 09:20:37;;;;;;;5.80;4.70;;;31.30;51.60;;;;;;5107142;28;20043;-90
2021/09/05 09:23:35;;;;;;;7.60;4.72;;;31.20;51.80;;;;;;5115682;28;20387;-92
2021/09/05 09:26:22;;;;;;;5.28;4.60;;;30.00;53.60;;;;;;5101335;28;20459;-92
2021/09/05 09:29:18;;;;;;;7.60;4.72;;;29.50;53.90;;;;;;5115906;28;20199;-92
2021/09/05 09:32:08;;;;;;;6.47;4.45;;;29.20;54.40;;;;;;5115028;28;20095;-92
2021/09/05 09:34:55;;;;;;;5.70;4.85;;;29.40;55.80;;;;;;5115091;28;20048;-93
2021/09/05 09:37:49;;;;;;;4.75;4.25;;;29.90;52.10;;;;;;5092593;28;20071;-93
2021/09/05 09:40:36;;;;;;;5.25;4.32;;;30.40;52.30;;;;;;5115083;28;20069;-93
2021/09/05 09:43:24;;;;;;;5.80;4.60;;;30.60;50.00;;;;;;5117176;28;20134;-93
2021/09/05 09:46:15;;;;;;;4.90;4.07;;;31.10;48.90;;;;;;5098332;28;20089;-93
2021/09/05 09:49:10;;;;;;;5.15;4.60;;;30.80;54.10;;;;;;5118753;28;20047;-92
2021/09/05 09:52:00;;;;;;;6.65;4.15;;;31.70;48.60;;;;;;5120426;28;20136;-93
2021/09/05 09:54:50;;;;;;;7.60;4.28;;;32.50;50.70;;;;;;5093560;28;20429;-95
2021/09/05 09:57:37;;;;;;;5.03;4.38;;;32.00;48.80;;;;;;5094653;28;20076;-91
2021/09/05 10:00:28;;;;;;;4.78;4.10;;;32.80;48.30;;;;;;5109312;28;20434;-92
2021/09/05 10:03:18;;;;;;;10.05;4.35;;;32.70;46.80;;;;;;5104202;28;20113;-93
2021/09/05 10:06:06;;;;;;;5.85;4.25;;;33.10;50.50;;;;;;5099407;28;20040;-93
2021/09/05 10:09:02;;;;;;;6.45;4.82;;;32.90;47.50;;;;;;5088404;28;20072;-93
2021/09/05 10:11:53;;;;;;;5.13;4.18;;;32.90;45.60;;;;;;5084232;28;20090;-92
2021/09/05 10:14:41;;;;;;;4.78;4.22;;;33.00;45.00;;;;;;5103906;28;20058;-91
2021/09/05 10:17:30;;;;;;;7.03;3.95;;;33.20;43.50;;;;;;5117955;28;20140;-91
2021/09/05 10:20:18;;;;;;;5.00;4.28;;;33.20;42.20;;;;;;5101330;28;20248;-91
2021/09/05 10:23:06;;;;;;;5.07;4.05;;;32.70;44.40;;;;;;5112962;28;20067;-91
2021/09/05 10:25:55;;;;;;;5.78;4.18;;;32.60;45.10;;;;;;5095197;28;20144;-92
2021/09/05 10:28:51;;;;;;;4.75;4.18;;;32.40;44.80;;;;;;5093816;28;20057;-93
2021/09/05 10:31:40;;;;;;;4.05;3.65;;;32.60;43.70;;;;;;5114471;28;20047;-91
2021/09/05 10:34:33;;;;;;;5.20;3.63;;;33.00;43.60;;;;;;5126160;28;20069;-92
2021/09/05 10:37:26;;;;;;;4.10;3.70;;;33.40;44.40;;;;;;5122942;28;20071;-93
2021/09/05 10:40:14;;;;;;;5.93;3.70;;;33.80;43.10;;;;;;5135868;28;20074;-90
2021/09/05 10:43:23;;;;;;;6.47;3.97;;;33.90;39.20;;;;;;5125931;28;20117;-92
2021/09/05 10:46:12;;;;;;;4.38;3.95;;;34.10;39.50;;;;;;5122851;28;20035;-92
2021/09/05 10:49:02;;;;;;;4.43;3.70;;;34.30;39.60;;;;;;5121913;28;20058;-92
2021/09/05 10:51:51;;;;;;;3.83;3.45;;;34.40;38.00;;;;;;5107758;28;20044;-92
2021/09/05 10:54:48;;;;;;;3.65;3.30;;;33.50;39.00;;;;;;5121980;27;20107;-90
2021/09/05 10:57:41;;;;;;;5.75;3.80;;;33.30;40.30;;;;;;5130743;27;20088;-91
2021/09/05 11:00:31;;;;;;;3.95;3.60;;;33.40;38.80;;;;;;5129028;28;20063;-93
2021/09/05 11:03:21;;;;;;;5.38;4.60;;;33.90;40.00;;;;;;5139144;27;20057;-91
2021/09/05 11:06:37;;;;;;;3.80;3.45;;;34.30;38.40;;;;;;5132630;28;20048;-90
2021/09/05 11:09:24;;;;;;;3.70;3.40;;;34.60;41.70;;;;;;5128420;27;20040;-91
2021/09/05 11:12:32;;;;;;;4.35;3.85;;;35.30;39.70;;;;;;5139430;27;20087;-92
2021/09/05 11:15:27;;;;;;;7.25;5.40;;;35.00;37.90;;;;;;5108345;28;20056;-93
2021/09/05 11:18:16;;;;;;;4.72;4.22;;;34.40;39.50;;;;;;5105483;28;20028;-90
2021/09/05 11:21:05;;;;;;;5.80;3.97;;;34.20;39.70;;;;;;5127822;28;20050;-89
2021/09/05 11:23:54;;;;;;;4.25;3.63;;;34.20;39.70;;;;;;5128658;28;20104;-88
2021/09/05 11:27:04;;;;;;;5.38;3.65;;;35.00;39.30;;;;;;5112081;28;20040;-92
2021/09/05 11:29:51;;;;;;;4.55;3.85;;;34.20;39.70;;;;;;5106038;28;20063;-93
2021/09/05 11:32:40;;;;;;;4.40;3.63;;;33.70;38.30;;;;;;5127886;27;20127;-91
2021/09/05 11:35:35;;;;;;;7.38;5.82;;;34.00;40.40;;;;;;5122723;27;20116;-92
2021/09/05 11:38:27;;;;;;;6.30;4.90;;;33.70;40.30;;;;;;5131458;27;20053;-92
2021/09/05 11:41:23;;;;;;;6.72;4.28;;;33.30;39.30;;;;;;5107088;28;20455;-93
2021/09/05 11:44:11;;;;;;;5.55;3.63;;;33.40;40.10;;;;;;5119218;27;20047;-91
2021/09/05 11:47:12;;;;;;;5.53;4.10;;;34.60;37.10;;;;;;5101112;28;20086;-91
2021/09/05 11:50:02;;;;;;;44.85;40.30;;;35.30;37.80;;;;;;5114609;28;20124;-93
2021/09/05 11:52:49;;;;;;;6.85;3.67;;;35.80;36.80;;;;;;5100761;28;20360;-92
2021/09/05 11:55:40;;;;;;;6.05;4.18;;;35.10;38.00;;;;;;5086900;28;20456;-90
2021/09/05 11:58:27;;;;;;;9.93;9.05;;;35.30;36.50;;;;;;5100158;28;20360;-91
2021/09/05 12:01:15;;;;;;;4.43;3.47;;;35.10;37.30;;;;;;5115329;28;20177;-91
2021/09/05 12:04:03;;;;;;;6.00;5.22;;;35.20;35.80;;;;;;5088709;28;20040;-90
2021/09/05 12:06:51;;;;;;;6.18;3.85;;;35.00;36.80;;;;;;5116248;28;20428;-90
2021/09/05 12:09:38;;;;;;;5.70;3.85;;;35.20;35.90;;;;;;5100898;28;20040;-91
2021/09/05 12:12:25;;;;;;;3.88;3.47;;;34.50;36.50;;;;;;5101090;28;20067;-91
2021/09/05 12:15:18;;;;;;;3.90;3.50;;;33.40;37.70;;;;;;5102163;28;20044;-92
2021/09/05 12:18:27;;;;;;;6.72;3.78;;;32.30;38.30;;;;;;5102108;28;20401;-92
2021/09/05 12:21:29;;;;;;;4.13;3.67;;;32.10;41.10;;;;;;5122591;28;20116;-93
2021/09/05 12:24:20;;;;;;;4.50;4.03;;;32.40;40.90;;;;;;5105253;28;20127;-92
2021/09/05 12:27:09;;;;;;;4.63;3.90;;;32.70;39.30;;;;;;5117632;28;20080;-92
2021/09/05 12:30:29;;;;;;;3.80;3.38;;;33.70;39.60;;;;;;5102639;28;20043;-93
2021/09/05 12:33:31;;;;;;;3.75;3.42;;;34.80;35.00;;;;;;5101244;28;20039;-91
2021/09/05 12:36:24;;;;;;;4.15;3.28;;;33.50;35.30;;;;;;5101615;28;20048;-93
2021/09/05 12:39:19;;;;;;;;;;;33.30;38.40;;;;;;5117627;28;20043;-90
2021/09/05 12:42:11;;;;;;;4.35;3.17;;;33.20;35.80;;;;;;5101280;28;19926;-90
2021/09/05 12:45:02;;;;;;;5.68;3.67;;;32.70;39.10;;;;;;5099460;28;20048;-88
2021/09/05 12:48:08;;;;;;;4.80;3.53;;;32.40;37.90;;;;;;5101539;28;20046;-86
2021/09/05 12:51:05;;;;;;;4.35;3.38;;;31.10;41.00;;;;;;5116663;28;20047;-90
2021/09/05 12:53:57;;;;;;;3.70;3.40;;;31.10;41.60;;;;;;5101979;28;20051;-89
2021/09/05 12:56:45;;;;;;;3.83;3.40;;;33.10;40.80;;;;;;5100570;28;20097;-88
2021/09/05 12:59:33;;;;;;;5.07;3.38;;;33.30;40.30;;;;;;5115117;28;20047;-90
2021/09/05 13:02:26;;;;;;;3.80;3.40;;;33.40;39.50;;;;;;5100892;28;20176;-88
2021/09/05 13:05:16;;;;;;;3.97;3.58;;;33.50;38.20;;;;;;5099706;28;20047;-88
2021/09/05 13:08:05;;;;;;;4.15;3.55;;;34.00;36.90;;;;;;5101322;28;20456;-88
2021/09/05 13:10:52;;;;;;;3.40;3.10;;;34.40;35.30;;;;;;5100892;28;20047;-86
2021/09/05 13:13:42;;;;;;;5.88;3.55;;;35.20;35.80;;;;;;5099355;28;20063;-88
2021/09/05 13:16:31;;;;;;;3.30;3.00;;;35.90;33.90;;;;;;5099952;28;20043;-90
2021/09/05 13:19:18;;;;;;;4.10;3.28;;;36.50;35.70;;;;;;5086449;28;20128;-87
2021/09/05 13:22:07;;;;;;;4.05;3.30;;;37.00;34.20;;;;;;5100569;28;20464;-87
2021/09/05 13:24:57;;;;;;;3.85;3.50;;;36.60;34.60;;;;;;5098047;28;20036;-86
2021/09/05 13:27:47;;;;;;;9.05;4.07;;;35.80;36.40;;;;;;5099340;28;20055;-89
2021/09/05 13:30:35;;;;;;;4.15;3.75;;;36.30;35.70;;;;;;5115136;28;20040;-86
2021/09/05 13:33:22;;;;;;;3.67;3.33;;;36.20;34.50;;;;;;5098234;28;20461;-87
2021/09/05 13:36:12;;;;;;;5.00;3.38;;;35.50;33.50;;;;;;5097844;28;20071;-88
2021/09/05 13:38:59;;;;;;;7.35;3.80;;;35.50;35.60;;;;;;5099401;28;20537;-87
2021/09/05 13:41:46;;;;;;;5.70;3.45;;;35.40;35.40;;;;;;5098711;28;20085;-87
2021/09/05 13:44:34;;;;;;;7.00;3.63;;;35.10;35.00;;;;;;5113577;28;20043;-90
2021/09/05 13:47:24;;;;;;;6.22;4.13;;;35.50;36.10;;;;;;5098882;28;20035;-87
2021/09/05 13:50:17;;;;;;;3.93;3.53;;;35.50;34.90;;;;;;5086493;28;20071;-88
2021/09/05 13:53:04;;;;;;;5.38;3.90;;;35.10;36.10;;;;;;5098359;28;20040;-87
2021/09/05 13:55:53;;;;;;;5.10;4.20;;;34.40;37.80;;;;;;5099807;28;20075;-91
2021/09/05 13:58:44;;;;;;;4.50;3.97;;;34.50;36.50;;;;;;5098702;28;20356;-88
2021/09/05 14:01:34;;;;;;;4.95;3.53;;;34.20;37.90;;;;;;5084836;28;20069;-87
2021/09/05 14:04:22;;;;;;;3.97;3.58;;;34.60;37.30;;;;;;5097512;28;20207;-85
2021/09/05 14:07:12;;;;;;;5.53;3.85;;;34.50;37.30;;;;;;5100070;28;20043;-88
2021/09/05 14:09:59;;;;;;;3.72;3.42;;;34.40;36.40;;;;;;5099698;28;20111;-88
2021/09/05 14:12:47;;;;;;;5.60;3.85;;;34.80;36.00;;;;;;5071667;28;20043;-85
2021/09/05 14:15:34;;;;;;;7.75;3.67;;;35.80;35.80;;;;;;5098845;28;20047;-85
2021/09/05 14:18:24;;;;;;;5.90;3.67;;;35.30;35.00;;;;;;5097341;28;20097;-85
2021/09/05 14:21:12;;;;;;;8.18;3.78;;;34.90;35.80;;;;;;5098455;28;20499;-85
2021/09/05 14:24:01;;;;;;;4.07;3.55;;;34.50;37.00;;;;;;5111953;28;20035;-86
2021/09/05 14:27:08;;;;;;;4.70;3.80;;;34.70;35.80;;;;;;5100575;28;20488;-83
2021/09/05 14:30:03;;;;;;;3.95;3.55;;;34.70;34.80;;;;;;5119332;28;20138;-82
2021/09/05 14:33:25;;;;;;;5.75;3.85;;;34.40;35.70;;;;;;5091736;28;20067;-83
2021/09/05 14:55:09;;;;;;;5.53;3.75;;;33.80;33.90;;;;;;5023812;28;20042;-85
2021/09/05 14:57:59;;;;;;;5.50;3.35;;;33.50;34.60;;;;;;5116038;28;20066;-85
2021/09/05 15:00:52;;;;;;;4.07;3.38;;;33.20;34.30;;;;;;5087578;28;20093;-85
2021/09/05 15:04:11;;;;;;;4.22;3.22;;;33.40;35.90;;;;;;5087925;28;20037;-83
2021/09/05 15:10:59;;;;;;;4.40;3.22;;;33.10;36.00;;;;;;5115649;28;20079;-83
2021/09/05 15:13:25;;;;;;;5.43;3.45;;;33.00;35.80;;;;;;5116565;28;20044;-86
2021/09/05 15:16:12;;;;;;;3.63;3.10;;;32.90;35.00;;;;;;5115859;28;20124;-84
2021/09/05 15:19:00;;;;;;;4.03;3.05;;;32.90;35.40;;;;;;5100053;28;20047;-84
2021/09/05 15:22:00;;;;;;;4.30;3.20;;;32.90;35.30;;;;;;5100855;28;20043;-84
2021/09/05 15:24:48;;;;;;;5.47;3.45;;;32.70;35.50;;;;;;5116728;28;20346;-83
2021/09/05 15:27:42;;;;;;;3.90;3.28;;;32.10;37.80;;;;;;5101533;28;20047;-85
2021/09/05 15:30:39;;;;;;;6.38;3.75;;;32.00;37.50;;;;;;5101398;28;20449;-84
2021/09/05 15:33:40;;;;;;;6.22;3.97;;;31.70;36.90;;;;;;5099932;28;20372;-86
2021/09/05 15:51:51;;;;;;;5.60;3.50;;;30.80;38.20;;;;;;5111316;28;20047;-86
2021/09/05 15:54:39;;;;;;;4.95;3.55;;;30.20;39.20;;;;;;5086357;28;20048;-86
2021/09/05 15:57:28;;;;;;;3.88;3.40;;;29.70;39.60;;;;;;5092400;28;20367;-86
2021/09/05 16:00:26;;;;;;;4.22;3.67;;;29.40;40.80;;;;;;5117346;28;20047;-86
2021/09/05 16:06:28;;;;;;;4.03;3.63;;;29.20;41.10;;;;;;5119465;28;20119;-86
2021/09/05 16:18:21;;;;;;;4.95;3.53;;;27.80;42.90;;;;;;5114671;28;20085;-83
2021/09/05 16:21:10;;;;;;;7.10;3.38;;;26.70;45.20;;;;;;5100164;28;20365;-86
2021/09/05 16:23:58;;;;;;;8.65;3.95;;;26.50;46.50;;;;;;5085729;28;20035;-82
2021/09/05 16:26:47;;;;;;;5.65;3.70;;;26.50;45.90;;;;;;5100615;28;20046;-83
2021/09/05 16:29:40;;;;;;;6.35;3.90;;;26.40;46.20;;;;;;5100041;28;20036;-86